createdAt,value
2023-04-15T00:00:34.400Z,40.93
2023-04-15T00:01:37.309Z,40.76
2023-04-15T00:02:39.259Z,40.80
2023-04-15T00:03:42.198Z,41.00
2023-04-15T00:04:44.491Z,40.46
2023-04-15T00:05:47.258Z,40.90
2023-04-15T00:06:53.157Z,41.02
2023-04-15T00:07:55.947Z,41.08
2023-04-15T00:08:57.692Z,40.48
2023-04-15T00:10:00.648Z,40.99
2023-04-15T00:11:05.993Z,40.92
2023-04-15T00:12:09.032Z,40.97
2023-04-15T00:13:10.769Z,41.42
2023-04-15T00:14:13.430Z,40.89
2023-04-15T00:15:15.414Z,40.63
2023-04-15T00:16:18.206Z,40.52
2023-04-15T00:17:19.973Z,40.61
2023-04-15T00:18:23.317Z,41.06
2023-04-15T00:19:25.419Z,41.02
2023-04-15T00:20:28.139Z,40.77
2023-04-15T00:21:29.941Z,40.93
2023-04-15T00:22:32.593Z,40.66
2023-04-15T00:23:34.309Z,41.30
2023-04-15T00:24:37.046Z,40.61
2023-04-15T00:25:38.679Z,41.59
2023-04-15T00:26:42.697Z,41.49
2023-04-15T00:27:44.457Z,41.08
2023-04-15T00:28:47.347Z,41.52
2023-04-15T00:29:49.069Z,41.71
2023-04-15T00:30:51.751Z,41.06
2023-04-15T00:31:53.537Z,41.67
2023-04-15T00:32:56.477Z,41.95
2023-04-15T00:33:58.538Z,42.02
2023-04-15T00:35:01.226Z,41.47
2023-04-15T00:36:03.643Z,41.83
2023-04-15T00:37:06.422Z,42.00
2023-04-15T00:38:08.368Z,42.02
2023-04-15T00:39:11.063Z,41.71
2023-04-15T00:40:13.641Z,42.46
2023-04-15T00:41:16.438Z,41.92
2023-04-15T00:42:20.194Z,42.46
2023-04-15T00:43:22.894Z,42.23
2023-04-15T00:44:24.693Z,42.00
2023-04-15T00:45:30.185Z,42.26
2023-04-15T00:46:32.525Z,41.78
2023-04-15T00:47:37.252Z,42.37
2023-04-15T00:48:39.275Z,42.47
2023-04-15T00:49:42.189Z,42.72
2023-04-15T00:50:43.836Z,42.52
2023-04-15T00:51:46.790Z,42.29
2023-04-15T00:52:48.726Z,42.28
2023-04-15T00:53:51.888Z,42.66
2023-04-15T00:54:53.669Z,42.42
2023-04-15T00:55:56.980Z,42.76
2023-04-15T00:57:00.740Z,42.49
2023-04-15T00:58:03.798Z,42.92
2023-04-15T00:59:07.785Z,42.61
2023-04-15T01:00:11.812Z,43.15
2023-04-15T01:01:14.783Z,42.83
2023-04-15T01:02:16.961Z,43.03
2023-04-15T01:03:19.833Z,42.53
2023-04-15T01:04:21.722Z,42.96
2023-04-15T01:05:25.082Z,43.26
2023-04-15T01:06:27.571Z,42.59
2023-04-15T01:07:30.280Z,42.79
2023-04-15T01:08:31.958Z,43.06
2023-04-15T01:09:34.747Z,44.11
2023-04-15T01:10:36.520Z,42.86
2023-04-15T01:11:39.902Z,43.52
2023-04-15T01:12:42.493Z,43.34
2023-04-15T01:13:47.562Z,42.78
2023-04-15T01:14:49.316Z,43.51
2023-04-15T01:15:52.653Z,44.03
2023-04-15T01:16:54.309Z,43.12
2023-04-15T01:17:58.182Z,43.20
2023-04-15T01:19:00.749Z,43.46
2023-04-15T01:20:05.187Z,44.09
2023-04-15T01:21:07.123Z,43.38
2023-04-15T01:22:10.096Z,43.82
2023-04-15T01:23:12.095Z,44.07
2023-04-15T01:24:17.646Z,43.52
2023-04-15T01:25:19.783Z,43.27
2023-04-15T01:26:24.302Z,43.95
2023-04-15T01:27:26.025Z,43.66
2023-04-15T01:28:28.733Z,43.95
2023-04-15T01:29:31.730Z,44.31
2023-04-15T01:30:35.736Z,44.05
2023-04-15T01:31:37.566Z,44.68
2023-04-15T01:32:40.539Z,44.10
2023-04-15T01:33:43.325Z,44.67
2023-04-15T01:34:46.092Z,44.35
2023-04-15T01:35:47.885Z,43.94
2023-04-15T01:36:50.585Z,43.87
2023-04-15T01:37:52.573Z,44.43
2023-04-15T01:38:55.881Z,43.68
2023-04-15T01:39:58.069Z,43.83
2023-04-15T01:41:00.791Z,43.80
2023-04-15T01:42:04.231Z,44.33
2023-04-15T01:43:07.294Z,44.05
2023-04-15T01:44:09.189Z,44.11
2023-04-15T01:45:12.570Z,44.80
2023-04-15T01:46:15.250Z,43.71
2023-04-15T01:47:17.088Z,43.75
2023-04-15T01:48:19.791Z,44.64
2023-04-15T01:49:21.511Z,44.03
2023-04-15T01:50:24.173Z,44.79
2023-04-15T01:51:25.848Z,44.62
2023-04-15T01:52:28.524Z,44.58
2023-04-15T01:53:30.194Z,44.62
2023-04-15T01:54:33.005Z,44.51
2023-04-15T01:55:34.701Z,45.09
2023-04-15T01:56:37.372Z,44.36
2023-04-15T01:57:40.519Z,44.83
2023-04-15T01:58:43.168Z,44.88
2023-04-15T01:59:44.878Z,44.39
2023-04-15T02:00:47.984Z,44.62
2023-04-15T02:01:49.737Z,44.84
2023-04-15T02:02:52.532Z,44.74
2023-04-15T02:03:54.296Z,45.51
2023-04-15T02:04:57.007Z,45.12
2023-04-15T02:05:58.770Z,45.05
2023-04-15T02:07:04.065Z,45.07
2023-04-15T02:08:06.089Z,45.14
2023-04-15T02:09:09.194Z,45.03
2023-04-15T02:10:13.091Z,45.52
2023-04-15T02:11:15.759Z,45.33
2023-04-15T02:12:17.409Z,45.01
2023-04-15T02:13:21.485Z,45.81
2023-04-15T02:14:23.315Z,44.82
2023-04-15T02:15:26.122Z,45.79
2023-04-15T02:16:28.818Z,45.44
2023-04-15T02:17:30.604Z,45.80
2023-04-15T02:18:33.297Z,45.54
2023-04-15T02:19:35.467Z,45.82
2023-04-15T02:20:38.161Z,45.80
2023-04-15T02:21:40.105Z,45.67
2023-04-15T02:22:42.763Z,45.74
2023-04-15T02:23:44.531Z,45.99
2023-04-15T02:24:47.680Z,45.97
2023-04-15T02:25:53.296Z,45.50
2023-04-15T02:26:57.372Z,45.89
2023-04-15T02:27:59.101Z,46.30
2023-04-15T02:29:03.199Z,45.93
2023-04-15T02:30:05.966Z,45.81
2023-04-15T02:31:09.608Z,46.01
2023-04-15T02:32:11.822Z,45.76
2023-04-15T02:33:14.545Z,45.97
2023-04-15T02:34:16.624Z,45.99
2023-04-15T02:35:19.941Z,46.04
2023-04-15T02:36:21.715Z,46.37
2023-04-15T02:37:27.228Z,45.71
2023-04-15T02:38:30.998Z,46.22
2023-04-15T02:39:32.900Z,45.74
2023-04-15T02:40:35.603Z,45.71
2023-04-15T02:41:37.349Z,45.63
2023-04-15T02:42:40.137Z,45.88
2023-04-15T02:43:41.895Z,46.03
2023-04-15T02:44:45.999Z,46.24
2023-04-15T02:45:48.572Z,45.89
2023-04-15T02:46:52.772Z,45.75
2023-04-15T02:47:54.891Z,46.05
2023-04-15T02:48:59.817Z,46.24
2023-04-15T02:50:03.221Z,45.63
2023-04-15T02:51:15.891Z,45.62
2023-04-15T02:52:17.606Z,45.82
2023-04-15T02:53:20.910Z,46.28
2023-04-15T02:54:23.046Z,45.95
2023-04-15T02:55:25.865Z,46.00
2023-04-15T02:56:27.638Z,46.06
2023-04-15T02:57:30.342Z,45.92
2023-04-15T02:58:32.065Z,45.80
2023-04-15T02:59:34.895Z,46.02
2023-04-15T03:00:38.011Z,46.51
2023-04-15T03:01:40.728Z,45.92
2023-04-15T03:02:43.132Z,46.12
2023-04-15T03:03:46.175Z,46.22
2023-04-15T03:04:47.905Z,46.00
2023-04-15T03:05:50.632Z,45.81
2023-04-15T03:06:52.322Z,46.26
2023-04-15T03:07:55.088Z,46.29
2023-04-15T03:08:56.960Z,46.33
2023-04-15T03:09:59.615Z,46.30
2023-04-15T03:11:02.647Z,45.91
2023-04-15T03:12:05.341Z,46.08
2023-04-15T03:13:07.089Z,46.37
2023-04-15T03:14:09.807Z,46.48
2023-04-15T03:15:12.147Z,46.36
2023-04-15T03:16:16.413Z,46.46
2023-04-15T03:17:18.243Z,46.15
2023-04-15T03:18:21.500Z,46.70
2023-04-15T03:19:23.188Z,46.25
2023-04-15T03:20:25.892Z,46.51
2023-04-15T03:21:27.769Z,46.29
2023-04-15T03:22:30.538Z,46.27
2023-04-15T03:23:32.282Z,46.52
2023-04-15T03:24:35.006Z,46.76
2023-04-15T03:25:37.450Z,46.54
2023-04-15T03:26:40.227Z,46.23
2023-04-15T03:27:41.989Z,46.58
2023-04-15T03:28:44.701Z,46.54
2023-04-15T03:29:46.353Z,46.23
2023-04-15T03:30:49.039Z,46.50
2023-04-15T03:31:52.576Z,46.19
2023-04-15T03:32:55.376Z,46.81
2023-04-15T03:33:57.118Z,46.45
2023-04-15T03:34:59.826Z,46.55
2023-04-15T03:36:01.564Z,46.69
2023-04-15T03:37:04.279Z,46.70
2023-04-15T03:38:06.006Z,47.36
2023-04-15T03:39:08.706Z,47.16
2023-04-15T03:40:11.510Z,47.06
2023-04-15T03:41:14.376Z,46.87
2023-04-15T03:42:16.584Z,47.18
2023-04-15T03:43:19.294Z,47.61
2023-04-15T03:44:20.956Z,46.66
2023-04-15T03:45:23.683Z,47.77
2023-04-15T03:46:25.643Z,46.82
2023-04-15T03:47:29.713Z,46.57
2023-04-15T03:48:31.528Z,47.62
2023-04-15T03:49:34.347Z,47.11
2023-04-15T03:50:36.098Z,47.01
2023-04-15T03:51:38.802Z,47.29
2023-04-15T03:52:40.628Z,47.16
2023-04-15T03:53:43.371Z,47.07
2023-04-15T03:54:45.038Z,47.00
2023-04-15T03:55:47.764Z,46.88
2023-04-15T03:56:49.456Z,47.27
2023-04-15T03:57:52.085Z,47.56
2023-04-15T03:58:53.882Z,47.53
2023-04-15T03:59:56.539Z,46.96
2023-04-15T04:00:58.261Z,47.44
2023-04-15T04:02:01.292Z,47.15
2023-04-15T04:03:04.487Z,47.10
2023-04-15T04:04:07.535Z,47.26
2023-04-15T04:05:10.521Z,46.66
2023-04-15T04:06:13.425Z,46.74
2023-04-15T04:07:16.364Z,47.40
2023-04-15T04:08:19.625Z,47.08
2023-04-15T04:09:21.723Z,47.25
2023-04-15T04:10:24.600Z,47.14
2023-04-15T04:11:26.447Z,46.93
2023-04-15T04:12:29.250Z,47.13
2023-04-15T04:13:31.150Z,47.44
2023-04-15T04:14:33.845Z,47.74
2023-04-15T04:15:35.712Z,47.93
2023-04-15T04:16:38.378Z,47.67
2023-04-15T04:17:40.187Z,47.70
2023-04-15T04:18:44.283Z,47.71
2023-04-15T04:19:46.421Z,47.33
2023-04-15T04:20:49.195Z,47.77
2023-04-15T04:21:51.635Z,47.18
2023-04-15T04:22:54.323Z,47.47
2023-04-15T04:23:56.819Z,47.72
2023-04-15T04:25:00.527Z,47.54
2023-04-15T04:26:02.618Z,47.07
2023-04-15T04:27:05.493Z,47.12
2023-04-15T04:28:07.332Z,47.40
2023-04-15T04:29:10.076Z,47.28
2023-04-15T04:30:12.629Z,47.49
2023-04-15T04:31:15.364Z,47.56
2023-04-15T04:32:17.376Z,47.85
2023-04-15T04:33:20.306Z,47.57
2023-04-15T04:34:23.373Z,48.08
2023-04-15T04:35:26.112Z,48.24
2023-04-15T04:36:28.120Z,48.35
2023-04-15T04:37:30.915Z,48.36
2023-04-15T04:38:33.010Z,48.36
2023-04-15T04:39:35.913Z,48.54
2023-04-15T04:40:37.584Z,48.15
2023-04-15T04:41:40.283Z,48.81
2023-04-15T04:42:41.991Z,48.84
2023-04-15T04:43:44.627Z,48.90
2023-04-15T04:44:46.370Z,48.99
2023-04-15T04:45:49.277Z,48.80
2023-04-15T04:46:51.056Z,48.81
2023-04-15T04:47:53.855Z,48.83
2023-04-15T04:48:55.577Z,48.59
2023-04-15T04:49:59.578Z,48.87
2023-04-15T04:51:01.252Z,48.32
2023-04-15T04:52:03.980Z,48.44
2023-04-15T04:53:05.965Z,48.58
2023-04-15T04:54:08.665Z,49.20
2023-04-15T04:55:10.692Z,48.80
2023-04-15T04:56:13.355Z,49.02
2023-04-15T04:57:15.059Z,48.94
2023-04-15T04:58:17.752Z,48.56
2023-04-15T04:59:19.576Z,48.86
2023-04-15T05:00:22.870Z,48.55
2023-04-15T05:01:24.610Z,49.15
2023-04-15T05:02:28.126Z,48.92
2023-04-15T05:03:31.355Z,48.74
2023-04-15T05:04:33.081Z,48.96
2023-04-15T05:05:39.457Z,48.83
2023-04-15T05:06:41.258Z,49.33
2023-04-15T05:07:44.007Z,49.34
2023-04-15T05:08:47.060Z,48.98
2023-04-15T05:09:49.768Z,48.84
2023-04-15T05:10:51.562Z,48.59
2023-04-15T05:11:54.241Z,49.30
2023-04-15T05:12:55.982Z,48.92
2023-04-15T05:13:59.728Z,49.39
2023-04-15T05:15:01.415Z,49.08
2023-04-15T05:16:04.162Z,49.17
2023-04-15T05:17:05.908Z,48.66
2023-04-15T05:18:08.597Z,49.19
2023-04-15T05:19:10.425Z,48.63
2023-04-15T05:20:14.435Z,49.04
2023-04-15T05:21:17.569Z,48.95
2023-04-15T05:22:20.227Z,49.06
2023-04-15T05:23:22.002Z,48.58
2023-04-15T05:24:24.876Z,48.75
2023-04-15T05:25:28.207Z,48.76
2023-04-15T05:26:29.929Z,48.90
2023-04-15T05:27:32.606Z,48.55
2023-04-15T05:28:34.389Z,48.74
2023-04-15T05:29:37.228Z,48.92
2023-04-15T05:30:39.550Z,48.58
2023-04-15T05:31:42.373Z,48.58
2023-04-15T05:32:44.404Z,48.74
2023-04-15T05:33:47.077Z,48.94
2023-04-15T05:34:48.799Z,48.39
2023-04-15T05:35:51.742Z,48.90
2023-04-15T05:36:54.753Z,48.53
2023-04-15T05:37:57.873Z,48.84
2023-04-15T05:38:59.767Z,48.45
2023-04-15T05:40:02.820Z,47.89
2023-04-15T05:41:04.550Z,48.38
2023-04-15T05:42:07.564Z,48.36
2023-04-15T05:43:09.232Z,48.18
2023-04-15T05:44:11.910Z,48.22
2023-04-15T05:45:13.714Z,47.93
2023-04-15T05:46:16.523Z,48.69
2023-04-15T05:47:18.385Z,48.54
2023-04-15T05:48:21.404Z,48.22
2023-04-15T05:49:23.233Z,48.25
2023-04-15T05:50:25.885Z,47.76
2023-04-15T05:51:27.828Z,48.09
2023-04-15T05:52:32.409Z,47.72
2023-04-15T05:53:34.108Z,48.40
2023-04-15T05:54:37.231Z,47.70
2023-04-15T05:55:38.973Z,47.67
2023-04-15T05:56:41.715Z,48.29
2023-04-15T05:57:43.386Z,47.58
2023-04-15T05:58:46.329Z,48.13
2023-04-15T05:59:48.090Z,47.94
2023-04-15T06:00:51.275Z,47.96
2023-04-15T06:01:53.070Z,47.79
2023-04-15T06:02:55.876Z,48.44
2023-04-15T06:03:57.829Z,47.88
2023-04-15T06:05:00.942Z,47.79
2023-04-15T06:06:02.768Z,47.56
2023-04-15T06:07:05.480Z,47.71
2023-04-15T06:08:08.592Z,47.60
2023-04-15T06:09:11.279Z,48.19
2023-04-15T06:10:13.080Z,47.37
2023-04-15T06:11:15.958Z,47.79
2023-04-15T06:12:17.661Z,47.46
2023-04-15T06:13:20.378Z,47.44
2023-04-15T06:14:22.066Z,47.40
2023-04-15T06:15:24.903Z,47.58
2023-04-15T06:16:27.370Z,47.92
2023-04-15T06:17:30.088Z,48.28
2023-04-15T06:18:32.754Z,47.89
2023-04-15T06:19:34.971Z,47.65
2023-04-15T06:20:37.750Z,47.97
2023-04-15T06:21:39.495Z,47.75
2023-04-15T06:22:42.197Z,47.72
2023-04-15T06:23:45.305Z,47.56
2023-04-15T06:24:48.016Z,48.64
2023-04-15T06:25:49.749Z,48.13
2023-04-15T06:26:52.413Z,48.48
2023-04-15T06:27:54.139Z,48.64
2023-04-15T06:28:57.049Z,48.93
2023-04-15T06:29:58.923Z,48.91
2023-04-15T06:31:02.426Z,48.94
2023-04-15T06:32:04.129Z,48.81
2023-04-15T06:33:07.417Z,48.13
2023-04-15T06:34:11.142Z,47.91
2023-04-15T06:35:12.846Z,48.28
2023-04-15T06:36:15.616Z,48.58
2023-04-15T06:37:17.442Z,48.42
2023-04-15T06:38:20.099Z,48.66
2023-04-15T06:39:23.206Z,48.52
2023-04-15T06:40:25.991Z,48.17
2023-04-15T06:41:27.971Z,48.53
2023-04-15T06:42:30.615Z,48.78
2023-04-15T06:43:32.402Z,49.15
2023-04-15T06:44:35.109Z,48.61
2023-04-15T06:45:36.831Z,48.42
2023-04-15T06:46:39.627Z,48.92
2023-04-15T06:47:41.831Z,49.18
2023-04-15T06:48:44.637Z,49.13
2023-04-15T06:49:46.403Z,48.90
2023-04-15T06:50:49.142Z,49.31
2023-04-15T06:51:51.609Z,49.40
2023-04-15T06:52:55.029Z,48.92
2023-04-15T06:53:57.169Z,48.87
2023-04-15T06:55:02.262Z,49.33
2023-04-15T06:56:04.225Z,49.14
2023-04-15T06:57:07.204Z,49.11
2023-04-15T06:58:08.927Z,49.30
2023-04-15T06:59:11.686Z,49.60
2023-04-15T07:00:14.243Z,49.42
2023-04-15T07:01:17.258Z,48.83
2023-04-15T07:02:19.262Z,48.67
2023-04-15T07:03:22.499Z,49.07
2023-04-15T07:04:24.469Z,49.10
2023-04-15T07:05:27.937Z,49.00
2023-04-15T07:06:29.628Z,48.60
2023-04-15T07:07:32.295Z,49.15
2023-04-15T07:08:34.087Z,48.88
2023-04-15T07:09:36.888Z,48.91
2023-04-15T07:10:39.965Z,48.91
2023-04-15T07:11:43.012Z,48.60
2023-04-15T07:12:44.653Z,48.32
2023-04-15T07:13:47.455Z,48.53
2023-04-15T07:14:49.608Z,48.60
2023-04-15T07:15:52.346Z,48.12
2023-04-15T07:16:54.045Z,48.37
2023-04-15T07:17:56.837Z,48.30
2023-04-15T07:18:58.488Z,48.07
2023-04-15T07:20:01.132Z,48.01
2023-04-15T07:21:02.933Z,48.09
2023-04-15T07:22:05.608Z,48.05
2023-04-15T07:23:08.000Z,47.89
2023-04-15T07:24:11.409Z,47.76
2023-04-15T07:25:13.090Z,47.78
2023-04-15T07:26:17.387Z,47.47
2023-04-15T07:27:19.123Z,47.28
2023-04-15T07:28:21.905Z,47.29
2023-04-15T07:29:23.636Z,47.24
2023-04-15T07:30:26.521Z,47.03
2023-04-15T07:31:29.391Z,47.04
2023-04-15T07:32:32.087Z,47.05
2023-04-15T07:33:33.862Z,46.95
2023-04-15T07:34:36.576Z,47.05
2023-04-15T07:35:38.302Z,46.95
2023-04-15T07:36:41.272Z,47.05
2023-04-15T07:37:43.428Z,46.79
2023-04-15T07:38:46.126Z,46.91
2023-04-15T07:39:47.993Z,46.47
2023-04-15T07:40:50.940Z,46.20
2023-04-15T07:41:54.995Z,46.54
2023-04-15T07:42:58.292Z,46.38
2023-04-15T07:44:01.046Z,46.05
2023-04-15T07:45:03.939Z,46.17
2023-04-15T07:46:05.983Z,45.91
2023-04-15T07:47:08.728Z,45.56
2023-04-15T07:48:11.431Z,45.92
2023-04-15T07:49:14.431Z,45.61
2023-04-15T07:50:17.325Z,45.24
2023-04-15T07:51:21.045Z,45.46
2023-04-15T07:52:22.784Z,45.54
2023-04-15T07:53:26.134Z,44.92
2023-04-15T07:54:27.842Z,45.03
2023-04-15T07:55:30.736Z,44.67
2023-04-15T07:56:32.812Z,44.17
2023-04-15T07:57:37.035Z,44.52
2023-04-15T07:58:39.912Z,44.14
2023-04-15T07:59:41.822Z,44.06
2023-04-15T08:00:44.771Z,43.78
2023-04-15T08:01:47.471Z,43.66
2023-04-15T08:02:49.912Z,43.45
2023-04-15T08:03:53.241Z,43.59
2023-04-15T08:04:55.147Z,43.63
2023-04-15T08:05:57.923Z,43.69
2023-04-15T08:07:00.624Z,43.39
2023-04-15T08:08:02.907Z,43.36
2023-04-15T08:09:05.727Z,43.02
2023-04-15T08:10:09.474Z,43.18
2023-04-15T08:11:11.532Z,43.40
2023-04-15T08:12:14.898Z,43.14
2023-04-15T08:13:18.002Z,42.78
2023-04-15T08:14:21.038Z,42.35
2023-04-15T08:15:23.442Z,42.08
2023-04-15T08:16:27.907Z,42.03
2023-04-15T08:17:29.888Z,42.28
2023-04-15T08:18:32.533Z,42.05
2023-04-15T08:19:35.608Z,42.25
2023-04-15T08:20:37.611Z,42.05
2023-04-15T08:21:40.678Z,42.13
2023-04-15T08:22:43.609Z,41.87
2023-04-15T08:23:46.782Z,41.89
2023-04-15T08:24:49.447Z,41.62
2023-04-15T08:25:51.286Z,41.63
2023-04-15T08:26:54.637Z,41.73
2023-04-15T08:27:57.607Z,41.95
2023-04-15T08:29:02.020Z,41.78
2023-04-15T08:30:05.172Z,41.50
2023-04-15T08:31:08.138Z,41.38
2023-04-15T08:32:10.904Z,41.23
2023-04-15T08:33:13.161Z,41.33
2023-04-15T08:34:16.065Z,41.20
2023-04-15T08:35:18.178Z,41.22
2023-04-15T08:36:21.097Z,41.40
2023-04-15T08:37:23.230Z,41.26
2023-04-15T08:38:25.911Z,41.20
2023-04-15T08:39:28.663Z,41.02
2023-04-15T08:40:40.308Z,40.77
2023-04-15T08:41:47.809Z,40.45
2023-04-15T08:42:50.329Z,39.73
2023-04-15T08:43:59.109Z,39.93
2023-04-15T08:45:04.672Z,39.88
2023-04-15T08:46:07.446Z,40.16
2023-04-15T08:47:09.477Z,39.81
2023-04-15T08:48:16.846Z,39.62
2023-04-15T08:49:20.758Z,39.45
2023-04-15T08:50:22.839Z,39.33
2023-04-15T08:51:26.430Z,39.36
2023-04-15T08:52:28.536Z,39.44
2023-04-15T08:53:31.494Z,39.40
2023-04-15T08:54:34.065Z,39.40
2023-04-15T08:55:37.956Z,39.28
2023-04-15T08:56:41.054Z,39.16
2023-04-15T08:57:43.200Z,39.13
2023-04-15T08:58:46.335Z,39.06
2023-04-15T08:59:48.464Z,39.04
2023-04-15T09:00:52.590Z,38.82
2023-04-15T09:01:55.369Z,38.41
2023-04-15T09:02:58.188Z,38.32
2023-04-15T09:04:00.182Z,38.27
2023-04-15T09:05:04.989Z,38.23
2023-04-15T09:06:06.952Z,38.08
2023-04-15T09:07:09.698Z,38.04
2023-04-15T09:08:12.146Z,38.03
2023-04-15T09:09:15.295Z,37.78
2023-04-15T09:10:17.335Z,37.48
2023-04-15T09:11:20.670Z,37.20
2023-04-15T09:12:23.331Z,36.71
2023-04-15T09:13:25.472Z,36.71
2023-04-15T09:14:32.123Z,36.48
2023-04-15T09:15:33.900Z,36.79
2023-04-15T09:16:58.842Z,36.21
2023-04-15T09:18:01.719Z,35.78
2023-04-15T09:19:20.801Z,35.49
2023-04-15T09:20:24.098Z,35.69
2023-04-15T09:21:27.722Z,35.91
2023-04-15T09:22:32.755Z,35.35
2023-04-15T09:23:35.905Z,34.57
2023-04-15T09:24:39.169Z,34.39
2023-04-15T09:25:43.198Z,34.13
2023-04-15T09:26:44.873Z,34.00
2023-04-15T09:27:49.752Z,34.07
2023-04-15T09:28:51.415Z,34.16
2023-04-15T09:29:54.940Z,33.94
2023-04-15T09:30:57.621Z,34.35
2023-04-15T09:32:10.857Z,33.73
2023-04-15T09:33:15.877Z,33.67
2023-04-15T09:34:17.963Z,33.84
2023-04-15T09:35:21.460Z,34.00
2023-04-15T09:36:25.204Z,33.94
2023-04-15T09:37:35.453Z,33.82
2023-04-15T09:38:56.128Z,33.36
2023-04-15T09:39:58.797Z,33.71
2023-04-15T09:41:00.583Z,33.41
2023-04-15T09:42:07.904Z,33.44
2023-04-15T09:43:13.043Z,33.31
2023-04-15T09:44:24.414Z,33.64
2023-04-15T09:45:29.578Z,33.63
2023-04-15T09:46:41.488Z,33.94
2023-04-15T09:47:45.684Z,33.66
2023-04-15T09:48:47.461Z,33.63
2023-04-15T09:49:57.571Z,33.26
2023-04-15T09:51:01.473Z,33.24
2023-04-15T09:52:06.278Z,33.04
2023-04-15T09:53:10.719Z,33.03
2023-04-15T09:54:12.439Z,33.25
2023-04-15T09:55:17.132Z,32.68
2023-04-15T09:56:22.966Z,32.65
2023-04-15T09:57:26.027Z,32.76
2023-04-15T09:58:29.184Z,32.98
2023-04-15T09:59:31.949Z,32.59
2023-04-15T10:00:34.749Z,32.53
2023-04-15T10:01:37.148Z,32.50
2023-04-15T10:02:41.518Z,32.73
2023-04-15T10:03:46.622Z,32.67
2023-04-15T10:04:49.563Z,32.46
2023-04-15T10:05:53.469Z,32.45
2023-04-15T10:06:55.212Z,32.45
2023-04-15T10:07:58.254Z,32.69
2023-04-15T10:09:00.039Z,32.78
2023-04-15T10:10:03.648Z,32.73
2023-04-15T10:11:07.952Z,32.30
2023-04-15T10:12:09.972Z,32.57
2023-04-15T10:13:16.000Z,32.64
2023-04-15T10:14:18.760Z,32.80
2023-04-15T10:15:22.328Z,32.93
2023-04-15T10:16:28.168Z,32.82
2023-04-15T10:17:33.635Z,32.33
2023-04-15T10:18:39.324Z,32.65
2023-04-15T10:19:42.890Z,32.65
2023-04-15T10:20:45.985Z,32.58
2023-04-15T10:21:47.887Z,32.51
2023-04-15T10:22:51.183Z,32.30
2023-04-15T10:23:53.096Z,32.13
2023-04-15T10:24:57.395Z,32.36
2023-04-15T10:25:59.498Z,32.34
2023-04-15T10:27:02.709Z,32.35
2023-04-15T10:28:05.573Z,32.31
2023-04-15T10:29:11.911Z,32.62
2023-04-15T10:30:13.766Z,32.58
2023-04-15T10:31:18.535Z,32.30
2023-04-15T10:32:21.138Z,32.17
2023-04-15T10:33:25.945Z,32.35
2023-04-15T10:34:27.905Z,32.29
2023-04-15T10:35:32.779Z,32.41
2023-04-15T10:36:34.570Z,32.37
2023-04-15T10:37:38.861Z,32.18
2023-04-15T10:38:41.938Z,31.90
2023-04-15T10:39:45.223Z,32.21
2023-04-15T10:40:48.199Z,32.26
2023-04-15T10:42:06.488Z,32.48
2023-04-15T10:43:26.337Z,32.20
2023-04-15T10:44:28.023Z,32.22
2023-04-15T10:45:34.688Z,32.63
2023-04-15T10:46:38.660Z,32.61
2023-04-15T10:47:41.642Z,32.70
2023-04-15T10:48:48.224Z,32.38
2023-04-15T10:49:52.773Z,32.66
2023-04-15T10:50:58.126Z,32.67
2023-04-15T10:52:01.012Z,32.62
2023-04-15T10:53:03.596Z,32.63
2023-04-15T10:54:10.671Z,32.61
2023-04-15T10:55:15.657Z,32.62
2023-04-15T10:56:17.623Z,32.65
2023-04-15T10:57:23.815Z,32.50
2023-04-15T10:58:25.997Z,32.45
2023-04-15T10:59:30.457Z,32.16
2023-04-15T11:00:32.891Z,32.36
2023-04-15T11:01:56.748Z,32.52
2023-04-15T11:03:00.911Z,32.48
2023-04-15T11:04:03.232Z,32.67
2023-04-15T11:05:06.676Z,32.75
2023-04-15T11:06:11.149Z,32.60
2023-04-15T11:07:12.875Z,32.56
2023-04-15T11:08:16.260Z,32.67
2023-04-15T11:09:32.568Z,32.45
2023-04-15T11:10:56.372Z,32.55
2023-04-15T11:12:08.446Z,32.27
2023-04-15T11:13:17.793Z,32.17
2023-04-15T11:14:20.488Z,32.26
2023-04-15T11:15:28.800Z,32.16
2023-04-15T11:16:31.532Z,32.21
2023-04-15T11:17:33.384Z,32.29
2023-04-15T11:18:36.319Z,32.40
2023-04-15T11:19:38.890Z,32.17
2023-04-15T11:20:43.012Z,32.33
2023-04-15T11:21:47.061Z,31.97
2023-04-15T11:22:48.930Z,32.38
2023-04-15T11:23:52.117Z,32.62
2023-04-15T11:24:53.823Z,32.22
2023-04-15T11:25:56.786Z,32.37
2023-04-15T11:26:59.859Z,32.55
2023-04-15T11:28:02.440Z,32.18
2023-04-15T11:29:05.352Z,32.03
2023-04-15T11:30:19.091Z,31.77
2023-04-15T11:31:23.899Z,31.50
2023-04-15T11:32:25.700Z,31.40
2023-04-15T11:33:28.409Z,31.59
2023-04-15T11:34:31.621Z,31.35
2023-04-15T11:35:34.572Z,31.43
2023-04-15T11:36:37.273Z,31.47
2023-04-15T11:37:40.455Z,31.41
2023-04-15T11:38:48.182Z,31.21
2023-04-15T11:39:49.877Z,31.23
2023-04-15T11:40:53.264Z,31.12
2023-04-15T11:41:55.048Z,30.89
2023-04-15T11:43:08.410Z,30.98
2023-04-15T11:44:18.083Z,30.78
2023-04-15T11:45:20.045Z,30.83
2023-04-15T11:46:23.582Z,30.89
2023-04-15T11:47:25.316Z,30.41
2023-04-15T11:48:29.589Z,30.57
2023-04-15T11:49:33.911Z,30.26
2023-04-15T11:50:37.224Z,30.13
2023-04-15T11:51:40.172Z,29.80
2023-04-15T11:52:52.807Z,29.55
2023-04-15T11:53:55.876Z,30.04
2023-04-15T11:55:03.524Z,30.19
2023-04-15T11:56:07.497Z,29.97
2023-04-15T11:57:09.272Z,29.41
2023-04-15T11:58:15.104Z,29.45
2023-04-15T11:59:18.880Z,29.52
2023-04-15T12:00:20.971Z,29.64
2023-04-15T12:01:32.514Z,29.90
2023-04-15T12:02:36.903Z,30.43
2023-04-15T12:03:40.918Z,30.83
2023-04-15T12:04:43.297Z,31.05
2023-04-15T12:06:06.136Z,30.75
2023-04-15T12:07:08.862Z,30.19
2023-04-15T12:08:12.249Z,30.44
2023-04-15T12:09:15.714Z,30.55
2023-04-15T12:10:17.998Z,30.42
2023-04-15T12:11:21.316Z,30.84
2023-04-15T12:12:28.279Z,30.44
2023-04-15T12:13:30.026Z,30.46
2023-04-15T12:14:36.623Z,30.75
2023-04-15T12:15:39.310Z,31.19
2023-04-15T12:16:48.646Z,31.45
2023-04-15T12:17:55.915Z,31.72
2023-04-15T12:18:59.083Z,32.23
2023-04-15T12:20:04.524Z,32.48
2023-04-15T12:21:10.799Z,33.19
2023-04-15T12:22:15.499Z,33.85
2023-04-15T12:23:20.928Z,34.31
2023-04-15T12:24:24.095Z,35.27
2023-04-15T12:25:34.667Z,35.83
2023-04-15T12:26:39.127Z,36.27
2023-04-15T12:27:42.496Z,36.47
2023-04-15T12:28:44.250Z,36.91
2023-04-15T12:29:47.193Z,37.37
2023-04-15T12:30:49.962Z,37.66
2023-04-15T12:31:53.860Z,38.09
2023-04-15T12:32:55.601Z,38.13
2023-04-15T12:33:58.609Z,38.14
2023-04-15T12:35:01.514Z,38.59
2023-04-15T12:36:03.366Z,38.86
2023-04-15T12:37:09.456Z,39.01
2023-04-15T12:38:11.188Z,39.29
2023-04-15T12:39:15.594Z,39.54
2023-04-15T12:40:17.328Z,39.93
2023-04-15T12:41:21.876Z,40.03
2023-04-15T12:42:23.573Z,40.17
2023-04-15T12:43:26.297Z,40.49
2023-04-15T12:44:29.561Z,40.78
2023-04-15T12:45:31.725Z,40.60
2023-04-15T12:46:34.930Z,40.88
2023-04-15T12:47:36.730Z,41.50
2023-04-15T12:48:39.417Z,41.59
2023-04-15T12:49:41.403Z,41.53
2023-04-15T12:50:44.166Z,41.67
2023-04-15T12:51:46.912Z,41.89
2023-04-15T12:52:48.631Z,42.25
2023-04-15T12:53:52.640Z,42.35
2023-04-15T12:54:56.056Z,42.54
2023-04-15T12:55:58.705Z,42.78
2023-04-15T12:57:05.474Z,43.15
2023-04-15T12:58:08.473Z,43.38
2023-04-15T12:59:11.526Z,43.58
2023-04-15T13:00:14.364Z,43.55
2023-04-15T13:01:17.083Z,43.76
2023-04-15T13:02:21.194Z,43.88
2023-04-15T13:03:24.151Z,44.17
2023-04-15T13:04:26.161Z,44.13
2023-04-15T13:05:28.895Z,44.27
2023-04-15T13:06:32.755Z,44.34
2023-04-15T13:07:35.429Z,44.48
2023-04-15T13:08:40.467Z,44.53
2023-04-15T13:09:45.493Z,44.98
2023-04-15T13:10:48.601Z,45.07
2023-04-15T13:11:52.652Z,45.31
2023-04-15T13:12:56.470Z,45.29
2023-04-15T13:13:59.128Z,45.48
2023-04-15T13:15:01.050Z,45.84
2023-04-15T13:16:03.814Z,46.32
2023-04-15T13:17:10.179Z,46.46
2023-04-15T13:18:11.911Z,47.03
2023-04-15T13:19:14.801Z,47.03
2023-04-15T13:20:17.394Z,46.81
2023-04-15T13:21:20.396Z,46.72
2023-04-15T13:22:22.136Z,46.84
2023-04-15T13:23:24.794Z,47.00
2023-04-15T13:24:26.475Z,46.88
2023-04-15T13:25:29.208Z,46.77
2023-04-15T13:26:32.794Z,47.06
2023-04-15T13:27:35.504Z,47.24
2023-04-15T13:28:37.437Z,47.49
2023-04-15T13:29:40.310Z,47.95
2023-04-15T13:30:42.878Z,47.82
2023-04-15T13:31:45.616Z,48.01
2023-04-15T13:32:48.691Z,48.27
2023-04-15T13:33:52.688Z,48.34
2023-04-15T13:34:56.146Z,48.56